createdAt,value
2023-01-12T16:00:13.116Z,997.04
2023-01-12T16:01:13.162Z,997.07
2023-01-12T16:02:13.265Z,997.03
2023-01-12T16:03:24.179Z,997.08
2023-01-12T16:04:47.349Z,997.04
2023-01-12T16:05:47.290Z,997.06
2023-01-12T16:06:47.300Z,997.02
2023-01-12T16:07:48.630Z,996.94
2023-01-12T16:08:47.336Z,996.99
2023-01-12T16:09:47.320Z,996.92
2023-01-12T16:10:47.331Z,997.01
2023-01-12T16:11:47.343Z,997.05
2023-01-12T16:12:47.351Z,997.03
2023-01-12T16:13:47.979Z,997
2023-01-12T16:14:47.370Z,996.99
2023-01-12T16:15:47.406Z,997
2023-01-12T16:16:48.026Z,997
2023-01-12T16:17:47.416Z,996.98
2023-01-12T16:18:47.402Z,996.95
2023-01-12T16:19:47.441Z,996.96
2023-01-12T16:20:47.419Z,996.96
2023-01-12T16:21:47.435Z,996.97
2023-01-12T16:22:47.491Z,996.91
2023-01-12T16:23:48.053Z,996.97
2023-01-12T16:24:47.453Z,997
2023-01-12T16:25:47.462Z,997
2023-01-12T16:26:47.512Z,997.03
2023-01-12T16:27:47.478Z,997.01
2023-01-12T16:28:47.502Z,997.01
2023-01-12T16:29:47.492Z,997.05
2023-01-12T16:30:47.508Z,997.01
2023-01-12T16:31:47.599Z,997.08
2023-01-12T16:32:47.524Z,997.07
2023-01-12T16:33:47.530Z,997.04
2023-01-12T16:34:47.539Z,997.12
2023-01-12T16:35:47.561Z,997.08
2023-01-12T16:36:47.555Z,997.04
2023-01-12T16:37:47.567Z,997.01
2023-01-12T16:38:47.574Z,996.98
2023-01-12T16:39:47.580Z,997.04
2023-01-12T16:40:47.588Z,996.96
2023-01-12T16:41:47.607Z,997.06
2023-01-12T16:42:48.212Z,997
2023-01-12T16:43:47.611Z,996.97
2023-01-12T16:44:47.622Z,996.98
2023-01-12T16:45:47.713Z,997.01
2023-01-12T16:46:47.648Z,997
2023-01-12T16:47:47.676Z,997.01
2023-01-12T16:48:47.662Z,997
2023-01-12T16:49:47.669Z,996.98
2023-01-12T16:50:47.690Z,996.98
2023-01-12T16:51:47.682Z,996.92
2023-01-12T16:52:47.694Z,996.92
2023-01-12T16:53:47.705Z,996.94
2023-01-12T16:54:47.751Z,996.93
2023-01-12T16:55:47.732Z,996.96
2023-01-12T16:56:47.730Z,996.92
2023-01-12T16:57:47.738Z,996.95
2023-01-12T16:58:48.112Z,996.96
2023-01-12T16:59:47.756Z,996.94
2023-01-12T17:00:47.761Z,996.95
2023-01-12T17:01:47.836Z,996.95
2023-01-12T17:02:47.964Z,996.95
2023-01-12T17:03:47.836Z,996.98
2023-01-12T17:04:48.032Z,996.87
2023-01-12T17:05:47.807Z,996.9
2023-01-12T17:06:47.812Z,996.88
2023-01-12T17:07:47.823Z,996.92
2023-01-12T17:08:47.891Z,996.99
2023-01-12T17:09:47.850Z,996.93
2023-01-12T17:10:47.845Z,996.89
2023-01-12T17:11:47.856Z,996.87
2023-01-12T17:12:54.097Z,996.9
2023-01-12T17:13:47.873Z,996.88
2023-01-12T17:14:47.886Z,996.88
2023-01-12T17:15:47.932Z,996.89
2023-01-12T17:16:47.896Z,996.92
2023-01-12T17:17:47.910Z,996.92
2023-01-12T17:18:47.929Z,996.88
2023-01-12T17:19:47.958Z,996.92
2023-01-12T17:20:47.932Z,996.84
2023-01-12T17:21:47.952Z,996.88
2023-01-12T17:22:47.953Z,996.79
2023-01-12T17:23:47.958Z,996.85
2023-01-12T17:24:47.985Z,996.78
2023-01-12T17:25:47.977Z,996.83
2023-01-12T17:26:47.982Z,996.75
2023-01-12T17:27:47.996Z,996.74
2023-01-12T17:28:48.013Z,996.73
2023-01-12T17:29:48.013Z,996.73
2023-01-12T17:30:48.041Z,996.77
2023-01-12T17:31:48.030Z,996.72
2023-01-12T17:32:48.036Z,996.79
2023-01-12T17:33:48.055Z,996.75
2023-01-12T17:34:48.076Z,996.74
2023-01-12T17:35:48.087Z,996.61
2023-01-12T17:36:48.721Z,996.7
2023-01-12T17:37:48.088Z,996.76
2023-01-12T17:38:48.094Z,996.69
2023-01-12T17:39:48.113Z,996.68
2023-01-12T17:40:48.116Z,996.71
2023-01-12T17:41:48.123Z,996.66
2023-01-12T17:42:48.146Z,996.68
2023-01-12T17:43:48.136Z,996.64
2023-01-12T17:44:48.138Z,996.63
2023-01-12T17:45:48.151Z,996.66
2023-01-12T17:46:48.794Z,996.53
2023-01-12T17:47:48.164Z,996.62
2023-01-12T17:48:50.209Z,996.62
2023-01-12T17:49:48.180Z,996.53
2023-01-12T17:50:48.189Z,996.58
2023-01-12T17:51:48.243Z,996.58
2023-01-12T17:52:48.207Z,996.6
2023-01-12T17:53:48.252Z,996.6
2023-01-12T17:54:48.226Z,996.55
2023-01-12T17:55:49.833Z,996.52
2023-01-12T17:56:48.243Z,996.5
2023-01-12T17:57:48.258Z,996.48
2023-01-12T17:58:48.255Z,996.5
2023-01-12T17:59:48.339Z,996.52
2023-01-12T18:00:48.272Z,996.53
2023-01-12T18:01:48.435Z,996.5
2023-01-12T18:02:48.338Z,996.49
2023-01-12T18:03:48.303Z,996.47
2023-01-12T18:04:48.307Z,996.44
2023-01-12T18:05:53.635Z,996.48
2023-01-12T18:06:48.325Z,996.52
2023-01-12T18:07:48.356Z,996.43
2023-01-12T18:08:48.360Z,996.44
2023-01-12T18:09:48.376Z,996.47
2023-01-12T18:10:48.391Z,996.41
2023-01-12T18:11:48.400Z,996.37
2023-01-12T18:12:48.390Z,996.47
2023-01-12T18:13:48.384Z,996.38
2023-01-12T18:14:48.390Z,996.39
2023-01-12T18:15:48.420Z,996.38
2023-01-12T18:16:48.414Z,996.45
2023-01-12T18:17:48.419Z,996.41
2023-01-12T18:18:48.423Z,996.42
2023-01-12T18:19:48.432Z,996.4
2023-01-12T18:20:48.458Z,996.39
2023-01-12T18:21:48.450Z,996.37
2023-01-12T18:22:48.479Z,996.34
2023-01-12T18:23:48.506Z,996.38
2023-01-12T18:24:48.483Z,996.36
2023-01-12T18:25:48.708Z,996.37
2023-01-12T18:26:48.490Z,996.38
2023-01-12T18:27:49.193Z,996.35
2023-01-12T18:28:48.592Z,996.35
2023-01-12T18:29:48.516Z,996.35
2023-01-12T18:30:48.692Z,996.36
2023-01-12T18:31:48.679Z,996.37
2023-01-12T18:32:48.573Z,996.25
2023-01-12T18:33:48.581Z,996.24
2023-01-12T18:34:48.655Z,996.22
2023-01-12T18:35:48.576Z,996.27
2023-01-12T18:36:48.578Z,996.29
2023-01-12T18:37:48.596Z,996.24
2023-01-12T18:38:48.593Z,996.27
2023-01-12T18:39:48.623Z,996.28
2023-01-12T18:40:48.612Z,996.21
2023-01-12T18:41:48.634Z,996.33
2023-01-12T18:42:48.625Z,996.31
2023-01-12T18:43:48.640Z,996.23
2023-01-12T18:44:48.643Z,996.25
2023-01-12T18:45:48.653Z,996.29
2023-01-12T18:46:48.654Z,996.25
2023-01-12T18:47:48.682Z,996.21
2023-01-12T18:48:48.675Z,996.27
2023-01-12T18:49:48.688Z,996.21
2023-01-12T18:50:49.058Z,996.28
2023-01-12T18:51:48.699Z,996.3
2023-01-12T18:52:48.723Z,996.25
2023-01-12T18:53:48.716Z,996.26
2023-01-12T18:54:48.724Z,996.21
2023-01-12T18:55:48.761Z,996.27
2023-01-12T18:56:48.743Z,996.29
2023-01-12T18:57:48.755Z,996.29
2023-01-12T18:58:48.760Z,996.28
2023-01-12T18:59:48.779Z,996.31
2023-01-12T19:00:48.773Z,996.3
2023-01-12T19:01:48.901Z,996.35
2023-01-12T19:02:48.834Z,996.32
2023-01-12T19:03:48.817Z,996.31
2023-01-12T19:04:48.820Z,996.33
2023-01-12T19:05:48.821Z,996.31
2023-01-12T19:06:48.823Z,996.29
2023-01-12T19:07:48.849Z,996.28
2023-01-12T19:08:49.068Z,996.3
2023-01-12T19:09:48.857Z,996.31
2023-01-12T19:10:48.860Z,996.27
2023-01-12T19:11:48.900Z,996.3
2023-01-12T19:12:49.046Z,996.28
2023-01-12T19:13:48.883Z,996.26
2023-01-12T19:14:48.894Z,996.28
2023-01-12T19:15:48.926Z,996.29
2023-01-12T19:16:48.903Z,996.24
2023-01-12T19:17:48.920Z,996.22
2023-01-12T19:18:48.932Z,996.24
2023-01-12T19:19:48.931Z,996.21
2023-01-12T19:20:48.938Z,996.26
2023-01-12T19:21:48.952Z,996.2
2023-01-12T19:22:48.965Z,996.2
2023-01-12T19:23:48.967Z,996.15
2023-01-12T19:24:48.969Z,996.16
2023-01-12T19:25:48.994Z,996.19
2023-01-12T19:26:48.990Z,996.23
2023-01-12T19:27:49.027Z,996.14
2023-01-12T19:28:49.008Z,996.08
2023-01-12T19:29:49.013Z,996.02
2023-01-12T19:30:49.031Z,996.09
2023-01-12T19:31:49.033Z,996.12
2023-01-12T19:32:49.058Z,996.14
2023-01-12T19:33:49.047Z,995.99
2023-01-12T19:34:50.438Z,996.09
2023-01-12T19:35:49.126Z,996.08
2023-01-12T19:36:49.073Z,996.03
2023-01-12T19:37:49.102Z,996.02
2023-01-12T19:38:50.580Z,996.05
2023-01-12T19:39:49.352Z,996.01
2023-01-12T19:40:49.109Z,996.08
2023-01-12T19:41:49.114Z,995.94
2023-01-12T19:42:49.123Z,995.98
2023-01-12T19:43:49.180Z,995.96
2023-01-12T19:44:49.165Z,995.96
2023-01-12T19:45:49.174Z,996.04
2023-01-12T19:46:49.445Z,995.96
2023-01-12T19:47:49.181Z,996.02
2023-01-12T19:48:49.169Z,995.96
2023-01-12T19:49:49.794Z,995.97
2023-01-12T19:50:49.789Z,995.94
2023-01-12T19:51:49.277Z,995.97
2023-01-12T19:52:49.204Z,996.04
2023-01-12T19:53:49.259Z,995.97
2023-01-12T19:54:49.220Z,995.98
2023-01-12T19:55:49.226Z,995.95
2023-01-12T19:56:49.238Z,995.99
2023-01-12T19:57:49.246Z,995.98
2023-01-12T19:58:49.258Z,995.99
2023-01-12T19:59:49.283Z,995.91
2023-01-12T20:00:49.271Z,995.97
2023-01-12T20:01:49.384Z,996.02
2023-01-12T20:02:49.389Z,996.01
2023-01-12T20:03:49.287Z,996
2023-01-12T20:04:49.303Z,996.06
2023-01-12T20:05:49.313Z,996.08
2023-01-12T20:06:49.339Z,996
2023-01-12T20:07:49.320Z,995.99
2023-01-12T20:08:49.334Z,996.02
2023-01-12T20:09:49.347Z,995.96
2023-01-12T20:10:49.347Z,995.99
2023-01-12T20:11:49.371Z,995.95
2023-01-12T20:12:49.427Z,995.96
2023-01-12T20:13:49.394Z,995.96
2023-01-12T20:14:49.389Z,996.01
2023-01-12T20:15:49.572Z,995.99
2023-01-12T20:16:49.394Z,996
2023-01-12T20:17:49.403Z,995.97
2023-01-12T20:18:49.438Z,995.96
2023-01-12T20:19:49.421Z,996.01
2023-01-12T20:20:49.446Z,995.93
2023-01-12T20:21:49.441Z,995.92
2023-01-12T20:22:49.440Z,995.97
2023-01-12T20:23:50.060Z,995.85
2023-01-12T20:24:49.473Z,995.97
2023-01-12T20:25:49.775Z,995.95
2023-01-12T20:26:49.546Z,996.01
2023-01-12T20:27:50.627Z,995.94
2023-01-12T20:28:49.500Z,995.94
2023-01-12T20:29:49.507Z,995.86
2023-01-12T20:30:49.518Z,995.93
2023-01-12T20:31:49.582Z,995.92
2023-01-12T20:32:49.543Z,995.95
2023-01-12T20:33:49.540Z,995.86
2023-01-12T20:34:49.568Z,995.87
2023-01-12T20:35:49.581Z,995.82
2023-01-12T20:36:49.566Z,995.95
2023-01-12T20:37:49.573Z,995.78
2023-01-12T20:38:49.581Z,995.85
2023-01-12T20:39:49.590Z,995.89
2023-01-12T20:40:49.598Z,995.84
2023-01-12T20:41:49.610Z,995.85
2023-01-12T20:42:49.610Z,995.84
2023-01-12T20:43:49.619Z,995.88
2023-01-12T20:44:49.625Z,995.89
2023-01-12T20:45:49.635Z,995.9
2023-01-12T20:46:49.712Z,995.87
2023-01-12T20:47:49.684Z,995.9
2023-01-12T20:48:49.662Z,995.82
2023-01-12T20:49:49.673Z,995.88
2023-01-12T20:50:49.676Z,995.86
2023-01-12T20:51:49.711Z,995.77
2023-01-12T20:52:49.693Z,995.82
2023-01-12T20:53:49.704Z,995.79
2023-01-12T20:54:49.710Z,995.82
2023-01-12T20:55:49.719Z,995.79
2023-01-12T20:56:49.728Z,995.8
2023-01-12T20:57:49.737Z,995.83
2023-01-12T20:58:49.743Z,995.77
2023-01-12T20:59:49.754Z,995.8
2023-01-12T21:00:49.799Z,995.8
2023-01-12T21:01:49.886Z,995.81
2023-01-12T21:02:49.771Z,995.84
2023-01-12T21:03:49.821Z,995.77
2023-01-12T21:04:49.916Z,995.77
2023-01-12T21:05:50.571Z,995.78
2023-01-12T21:06:50.116Z,995.73
2023-01-12T21:07:50.232Z,995.77
2023-01-12T21:08:49.833Z,995.7
2023-01-12T21:09:49.834Z,995.8
2023-01-12T21:10:49.845Z,995.77
2023-01-12T21:11:49.850Z,995.73
2023-01-12T21:12:49.859Z,995.75
2023-01-12T21:13:49.870Z,995.74
2023-01-12T21:14:49.878Z,995.72
2023-01-12T21:15:49.892Z,995.72
2023-01-12T21:16:49.958Z,995.71
2023-01-12T21:17:49.896Z,995.71
2023-01-12T21:18:49.907Z,995.66
2023-01-12T21:19:49.943Z,995.7
2023-01-12T21:20:49.928Z,995.54
2023-01-12T21:21:49.934Z,995.64
2023-01-12T21:22:49.942Z,995.69
2023-01-12T21:23:49.949Z,995.66
2023-01-12T21:24:49.962Z,995.64
2023-01-12T21:25:49.971Z,995.68
2023-01-12T21:26:49.974Z,995.55
2023-01-12T21:27:49.986Z,995.6
2023-01-12T21:28:49.997Z,995.67
2023-01-12T21:29:49.999Z,995.59
2023-01-12T21:30:50.028Z,995.68
2023-01-12T21:31:50.139Z,995.56
2023-01-12T21:32:50.027Z,995.52
2023-01-12T21:33:50.028Z,995.6
2023-01-12T21:34:50.049Z,995.53
2023-01-12T21:35:50.086Z,995.6
2023-01-12T21:36:50.069Z,995.53
2023-01-12T21:37:50.075Z,995.55
2023-01-12T21:38:50.075Z,995.56
2023-01-12T21:39:50.084Z,995.48
2023-01-12T21:40:50.092Z,995.48
2023-01-12T21:41:50.152Z,995.45
2023-01-12T21:42:50.109Z,995.53
2023-01-12T21:43:50.111Z,995.43
2023-01-12T21:44:50.130Z,995.52
2023-01-12T21:45:50.774Z,995.45
2023-01-12T21:46:50.147Z,995.41
2023-01-12T21:47:50.149Z,995.46
2023-01-12T21:48:50.155Z,995.51
2023-01-12T21:49:50.407Z,995.52
2023-01-12T21:50:50.776Z,995.52
2023-01-12T21:51:50.208Z,995.53
2023-01-12T21:52:50.195Z,995.57
2023-01-12T21:53:50.198Z,995.59
2023-01-12T21:54:50.207Z,995.56
2023-01-12T21:55:50.217Z,995.6
2023-01-12T21:56:50.226Z,995.56
2023-01-12T21:57:50.227Z,995.57
2023-01-12T21:58:50.248Z,995.52
2023-01-12T21:59:50.248Z,995.54
2023-01-12T22:00:50.297Z,995.61
2023-01-12T22:01:50.344Z,995.56
2023-01-12T22:02:50.277Z,995.56
2023-01-12T22:03:50.359Z,995.36
2023-01-12T22:04:50.289Z,995.54
2023-01-12T22:05:50.314Z,995.54
2023-01-12T22:06:50.306Z,995.47
2023-01-12T22:07:50.347Z,995.51
2023-01-12T22:08:50.328Z,995.45
2023-01-12T22:09:50.344Z,995.46
2023-01-12T22:10:50.344Z,995.49
2023-01-12T22:11:50.348Z,995.44
2023-01-12T22:12:50.358Z,995.5
2023-01-12T22:13:50.372Z,995.43
2023-01-12T22:14:50.374Z,995.44
2023-01-12T22:15:50.389Z,995.4
2023-01-12T22:16:50.467Z,995.45
2023-01-12T22:17:50.407Z,995.5
2023-01-12T22:18:50.421Z,995.44
2023-01-12T22:19:50.423Z,995.46
2023-01-12T22:20:50.428Z,995.44
2023-01-12T22:21:50.443Z,995.44
2023-01-12T22:22:50.450Z,995.43
2023-01-12T22:23:50.535Z,995.33
2023-01-12T22:24:50.468Z,995.41
2023-01-12T22:25:50.485Z,995.39
2023-01-12T22:26:50.488Z,995.39
2023-01-12T22:27:50.484Z,995.45
2023-01-12T22:28:50.496Z,995.43
2023-01-12T22:29:50.506Z,995.38
2023-01-12T22:30:50.510Z,995.45
2023-01-12T22:31:50.594Z,995.48
2023-01-12T22:32:50.532Z,995.51
2023-01-12T22:33:50.535Z,995.49
2023-01-12T22:34:50.550Z,995.45
2023-01-12T22:35:50.553Z,995.43
2023-01-12T22:36:50.567Z,995.45
2023-01-12T22:37:50.569Z,995.43
2023-01-12T22:38:50.581Z,995.48
2023-01-12T22:39:50.619Z,995.49
2023-01-12T22:40:50.602Z,995.49
2023-01-12T22:41:50.636Z,995.5
2023-01-12T22:42:50.617Z,995.43
2023-01-12T22:43:50.631Z,995.45
2023-01-12T22:44:50.638Z,995.45
2023-01-12T22:45:50.756Z,995.53
2023-01-12T22:46:50.651Z,995.45
2023-01-12T22:47:50.661Z,995.46
2023-01-12T22:48:50.676Z,995.36
2023-01-12T22:49:50.675Z,995.4
2023-01-12T22:50:50.687Z,995.33
2023-01-12T22:51:50.708Z,995.37
2023-01-12T22:52:50.703Z,995.34
2023-01-12T22:53:50.705Z,995.33
2023-01-12T22:54:50.715Z,995.33
2023-01-12T22:55:50.975Z,995.31
2023-01-12T22:56:51.348Z,995.24
2023-01-12T22:57:50.748Z,995.32
2023-01-12T22:58:51.505Z,995.26
2023-01-12T22:59:50.762Z,995.21
2023-01-12T23:00:51.395Z,995.28
2023-01-12T23:01:50.971Z,995.26
2023-01-12T23:02:50.939Z,995.26
2023-01-12T23:03:50.810Z,995.21
2023-01-12T23:04:50.808Z,995.24
2023-01-12T23:05:50.825Z,995.19
2023-01-12T23:06:50.844Z,995.25
2023-01-12T23:07:50.834Z,995.19
2023-01-12T23:08:50.842Z,995.22
2023-01-12T23:09:50.855Z,995.21
2023-01-12T23:10:50.867Z,995.19
2023-01-12T23:11:50.895Z,995.11
2023-01-12T23:12:50.880Z,995.17
2023-01-12T23:13:50.886Z,995.12
2023-01-12T23:14:50.893Z,995.14
2023-01-12T23:15:50.946Z,995.07
2023-01-12T23:16:50.914Z,995.08
2023-01-12T23:17:50.915Z,994.99
2023-01-12T23:18:50.923Z,995.04
2023-01-12T23:19:50.933Z,994.99
2023-01-12T23:20:50.943Z,995.01
2023-01-12T23:21:50.958Z,994.94
2023-01-12T23:22:50.962Z,994.92
2023-01-12T23:23:50.979Z,994.9
2023-01-12T23:24:50.979Z,994.86
2023-01-12T23:25:50.988Z,994.83
2023-01-12T23:26:50.998Z,994.88
2023-01-12T23:27:51.026Z,994.9
2023-01-12T23:28:51.025Z,995.04
2023-01-12T23:29:51.026Z,994.89
2023-01-12T23:30:51.072Z,994.93
2023-01-12T23:31:51.037Z,994.89
2023-01-12T23:32:51.048Z,994.92
2023-01-12T23:33:51.062Z,994.92
2023-01-12T23:34:51.062Z,994.89
2023-01-12T23:35:51.068Z,994.92
2023-01-12T23:36:51.088Z,994.81
2023-01-12T23:37:51.094Z,994.92
2023-01-12T23:38:51.302Z,994.9
2023-01-12T23:39:51.102Z,994.86
2023-01-12T23:40:51.110Z,994.82
2023-01-12T23:41:51.122Z,994.91
2023-01-12T23:42:51.143Z,994.83
2023-01-12T23:43:51.219Z,994.83
2023-01-12T23:44:52.126Z,994.87
2023-01-12T23:45:51.288Z,994.81
2023-01-12T23:46:51.302Z,994.82
2023-01-12T23:47:51.316Z,994.83
2023-01-12T23:48:51.366Z,994.81
2023-01-12T23:49:51.416Z,994.84
2023-01-12T23:50:51.197Z,994.78
2023-01-12T23:51:51.205Z,994.76
2023-01-12T23:52:51.217Z,994.83
2023-01-12T23:53:51.228Z,994.72
2023-01-12T23:54:51.233Z,994.6
2023-01-12T23:55:51.237Z,994.75
2023-01-12T23:56:51.250Z,994.74
2023-01-12T23:57:51.274Z,994.73
2023-01-12T23:58:51.268Z,994.71
2023-01-12T23:59:51.295Z,994.74
